• Join FlightAware (Why Join?)
  • Login
  • US Flag 
07:34AM EDT


 

Airport Tracker/Info


-or-


 

Live Flight TrackerFlight Track Log ✈ CES5388 ✈ 16-Sep-2013 ✈ ZGKL / KWL - ZSOF / HFE

Flight Track Log - Related Links

Times and Time Zones

All times are in EDT time to prevent confusion due to time zone crossing. See the CES5388 flight status page for this flight to view local times or setup timezone preferences in your user account.

Time Position Orientation Groundspeed Altitude Reporting Facility
EDT Latitude Longitude Course Direction KTS MPH feet Rate Location/Type
10:52AM 26.2001 111.0459 43° Northeast  Level Estimated
10:53AM 26.2753 111.1240 43° Northeast  Level Estimated
10:54AM 26.3505 111.2022 43° Northeast  Level Estimated
10:55AM 26.4257 111.2806 43° Northeast  Level Estimated
10:56AM 26.5008 111.3590 43° Northeast  Level Estimated
10:57AM 26.5759 111.4376 43° Northeast  Level Estimated
10:58AM 26.6509 111.5162 43° Northeast  Level Estimated
10:59AM 26.7259 111.5949 43° Northeast  Level Estimated
11:00AM 26.8009 111.6738 43° Northeast  Level Estimated
11:01AM 26.8758 111.7527 43° Northeast  Level Estimated
11:02AM 26.9506 111.8318 43° Northeast  Level Estimated
11:03AM 27.0254 111.9110 43° Northeast  Level Estimated
11:04AM 27.1002 111.9902 43° Northeast  Level Estimated
11:05AM 27.1749 112.0696 43° Northeast  Level Estimated
11:06AM 27.2496 112.1491 43° Northeast  Level Estimated
11:07AM 27.3243 112.2287 43° Northeast  Level Estimated
11:08AM 27.3989 112.3084 43° Northeast  Level Estimated
11:09AM 27.4734 112.3882 44° Northeast  Level Estimated
11:10AM 27.5479 112.4681 44° Northeast  Level Estimated
11:11AM 27.6224 112.5481 44° Northeast  Level Estimated
11:12AM 27.6968 112.6283 44° Northeast  Level Estimated
11:13AM 27.7711 112.7085 44° Northeast  Level Estimated
11:14AM 27.8454 112.7888 44° Northeast  Level Estimated
11:15AM 27.9197 112.8693 44° Northeast  Level Estimated
11:16AM 27.9939 112.9499 44° Northeast  Level Estimated
11:17AM 28.0681 113.0305 44° Northeast  Level Estimated
11:18AM 28.1423 113.1113 44° Northeast  Level Estimated
11:19AM 28.2163 113.1922 44° Northeast  Level Estimated
11:20AM 28.2904 113.2733 44° Northeast  Level Estimated
11:21AM 28.3643 113.3544 44° Northeast  Level Estimated
11:22AM 28.4383 113.4356 44° Northeast  Level Estimated
11:23AM 28.5122 113.5170 44° Northeast  Level Estimated
11:24AM 28.5860 113.5984 44° Northeast  Level Estimated
11:25AM 28.6598 113.6800 44° Northeast  Level Estimated
11:26AM 28.7335 113.7617 44° Northeast  Level Estimated
11:27AM 28.8072 113.8435 44° Northeast  Level Estimated
11:28AM 28.8809 113.9255 44° Northeast  Level Estimated
11:29AM 28.9545 114.0075 44° Northeast  Level Estimated
11:30AM 29.0280 114.0897 44° Northeast  Level Estimated
11:31AM 29.1015 114.1720 44° Northeast  Level Estimated
11:32AM 29.1749 114.2544 44° Northeast  Level Estimated
11:33AM 29.2483 114.3369 44° Northeast  Level Estimated
11:34AM 29.3217 114.4195 44° Northeast  Level Estimated
11:35AM 29.3950 114.5023 45° Northeast  Level Estimated
11:36AM 29.4682 114.5851 45° Northeast  Level Estimated
11:37AM 29.5414 114.6681 45° Northeast  Level Estimated
11:38AM 29.6145 114.7512 45° Northeast  Level Estimated
11:39AM 29.6876 114.8344 45° Northeast  Level Estimated
11:40AM 29.7607 114.9178 45° Northeast  Level Estimated
11:41AM 29.8336 115.0013 45° Northeast  Level Estimated
11:42AM 29.9066 115.0849 45° Northeast  Level Estimated
11:43AM 29.9794 115.1686 45° Northeast  Level Estimated
11:44AM 30.0523 115.2524 45° Northeast  Level Estimated
11:45AM 30.1250 115.3364 45° Northeast  Level Estimated
11:46AM 30.1978 115.4205 45° Northeast  Level Estimated
11:47AM 30.2704 115.5047 45° Northeast  Level Estimated
11:48AM 30.3430 115.5890 45° Northeast  Level Estimated
11:49AM 30.4156 115.6735 45° Northeast  Level Estimated
11:50AM 30.4881 115.7581 45° Northeast  Level Estimated
11:51AM 30.5605 115.8428 45° Northeast  Level Estimated
11:52AM 30.6329 115.9276 45° Northeast  Level Estimated
11:53AM 30.7053 116.0126 45° Northeast  Level Estimated
11:54AM 30.7775 116.0977 45° Northeast  Level Estimated
11:55AM 30.8498 116.1829 45° Northeast  Level Estimated
11:56AM 30.9219 116.2683 45° Northeast  Level Estimated
11:57AM 30.9940 116.3538 45° Northeast  Level Estimated
11:58AM 31.0661 116.4394 45° Northeast  Level Estimated
11:59AM 31.1381 116.5251 46° Northeast  Level Estimated
12:00PM 31.2100 116.6110 46° Northeast  Level Estimated
12:01PM 31.2819 116.6970 46° Northeast  Level Estimated
12:02PM 31.3538 116.7831 46° Northeast  Level Estimated
12:03PM 31.4255 116.8694 46° Northeast  Level Estimated
12:04PM 31.4972 116.9558 46° Northeast  Level Estimated
12:05PM 31.5689 117.0423 46° Northeast  Level Estimated
12:06PM 31.6457 117.1352 46° Northeast  Level Estimated
12:07PM 31.7224 117.2283 46° Northeast  Level Estimated
12:08PM 31.7800 117.2984 46° Northeast  Level Estimated
12:09PM 31.7800 117.2984 254° West  Level Estimated
12:10PM 31.7800 117.2984 254° West  Level Estimated
12:11PM 31.7800 117.2984 254° West  Level Estimated
12:12PM 31.7800 117.2984 254° West  Level Estimated
12:13PM 31.7800 117.2984 254° West  Level Estimated
12:14PM 31.7800 117.2984 254° West  Level Estimated
12:15PM 31.7800 117.2984 254° West  Level Estimated
12:16PM 31.7800 117.2984 254° West  Level Estimated
12:17PM 31.7800 117.2984 254° West  Level Estimated
12:18PM 31.7800 117.2984 254° West  Level Estimated